Langley Air Force Base Hampton US
ICAO: KLFI
IATA: LFI
Category: Large
Scheduled Services: No

Elevation: 11 ft
TransAlt. 18000 ft.

Airport Communications:
NORFOLK APP/DEP:124.9
ATIS:27.01
CLNC DEL:118.85
GND:121.7
NASA OPS:123.375
PMSV METRO:23.98
CNSOLIDATED CMD POST:25.125
PTD:141.75
TWR:125

KLFI Zoom In..

Runways:

(A) RW 08 length 10002 ft width 150 ft
ILS 109.90 / hdg 78

(B) RW 26 length 10002 ft width 150 ft
ILS 109.90 / hdg 258

Location; KLFI
Day. 21 / Time. 23.56 Zulu
* Altimeter: 30.39
* Temperature: 11° c. 51.8°f.
* Wind from: 120° Speed 07 kn.
Dewpoint: 04° c.
Visibility: 10 Statute Miles.
Clouds: Clear (automated report).

KLFI 212356Z AUTO 12007KT 10SM CLR 11/04 A3039 RMK AO2 SLP298 60000 T01050038 10137 20102 53001 $


Wind From 120°
Speed 07 kn.

  YouTube Music Video
 
jpsmedia.com for Web Design  worldairports.se 2018   terms of use